createdAt,value
2019-04-07T00:01:27.562Z,97307.28
2019-04-07T00:03:31.336Z,97310.88
2019-04-07T00:05:35.666Z,97316.08
2019-04-07T00:07:40.193Z,97311.76
2019-04-07T00:09:43.908Z,97307.70
2019-04-07T00:11:47.640Z,97312.36
2019-04-07T00:13:51.798Z,97308.83
2019-04-07T00:15:55.705Z,97309.69
2019-04-07T00:17:59.370Z,97314.05
2019-04-07T00:20:03.105Z,97310.27
2019-04-07T00:22:06.877Z,97314.11
2019-04-07T00:24:10.547Z,97314.16
2019-04-07T00:26:14.252Z,97322.64
2019-04-07T00:28:18.431Z,97317.75
2019-04-07T00:30:22.440Z,97322.14
2019-04-07T00:32:26.144Z,97317.80
2019-04-07T00:34:29.876Z,97316.20
2019-04-07T00:36:34.136Z,97312.39
2019-04-07T00:38:38.430Z,97312.69
2019-04-07T00:40:42.786Z,97314.62
2019-04-07T00:42:46.642Z,97309.20
2019-04-07T00:44:50.842Z,97312.75
2019-04-07T00:46:55.135Z,97316.84
2019-04-07T00:48:59.429Z,97312.49
2019-04-07T00:51:03.548Z,97314.16
2019-04-07T00:53:07.764Z,97310.87
2019-04-07T00:55:11.648Z,97316.07
2019-04-07T00:57:15.316Z,97307.38
2019-04-07T00:59:19.654Z,97312.81
2019-04-07T01:01:24.431Z,97311.19
2019-04-07T01:03:28.204Z,97315.28
2019-04-07T01:05:36.762Z,97310.67
2019-04-07T01:07:37.807Z,97312.86
2019-04-07T01:09:41.516Z,97316.66
2019-04-07T01:11:45.213Z,97322.39
2019-04-07T01:13:49.040Z,97319.67
2019-04-07T01:15:52.716Z,97327.56
2019-04-07T01:17:56.518Z,97331.93
2019-04-07T01:20:00.881Z,97335.72
2019-04-07T01:22:04.669Z,97332.47
2019-04-07T01:24:08.801Z,97327.57
2019-04-07T01:26:12.753Z,97332.73
2019-04-07T01:28:16.428Z,97333.02
2019-04-07T01:30:20.332Z,97336.02
2019-04-07T01:32:24.137Z,97335.73
2019-04-07T01:34:28.196Z,97341.17
2019-04-07T01:36:32.603Z,97337.92
2019-04-07T01:38:36.682Z,97336.28
2019-04-07T01:40:42.043Z,97347.16
2019-04-07T01:43:13.644Z,97340.11
2019-04-07T01:45:51.325Z,97343.91
2019-04-07T01:48:10.333Z,97346.91
2019-04-07T01:50:26.691Z,97343.09
2019-04-07T01:52:41.799Z,97340.12
2019-04-07T01:55:01.826Z,97343.63
2019-04-07T01:57:21.400Z,97342.00
2019-04-07T01:59:42.636Z,97338.45
2019-04-07T02:01:53.828Z,97344.41
2019-04-07T02:04:06.033Z,97344.12
2019-04-07T02:06:19.860Z,97344.94
2019-04-07T02:08:45.429Z,97343.85
2019-04-07T02:11:17.184Z,97347.91
2019-04-07T02:13:28.761Z,97354.16
2019-04-07T02:15:57.747Z,97341.92
2019-04-07T02:18:16.449Z,97345.42
2019-04-07T02:20:59.659Z,97344.88
2019-04-07T02:23:15.332Z,97342.14
2019-04-07T02:25:30.795Z,97341.06
2019-04-07T02:27:53.581Z,97349.19
2019-04-07T02:30:29.042Z,97343.42
2019-04-07T02:33:00.794Z,97351.55
2019-04-07T02:35:19.307Z,97343.38
2019-04-07T02:37:40.878Z,97348.53
2019-04-07T02:39:51.676Z,97349.56
2019-04-07T02:42:13.293Z,97350.38
2019-04-07T02:44:45.314Z,97356.34
2019-04-07T02:47:11.011Z,97354.67
2019-04-07T02:49:39.526Z,97362.56
2019-04-07T02:52:04.370Z,97353.05
2019-04-07T02:54:17.497Z,97360.88
2019-04-07T02:56:43.033Z,97361.14
2019-04-07T02:59:05.932Z,97366.55
2019-04-07T03:01:18.565Z,97360.83
2019-04-07T03:03:35.176Z,97362.20
2019-04-07T03:05:43.591Z,97357.88
2019-04-07T03:08:10.196Z,97361.33
2019-04-07T03:10:38.849Z,97360.75
2019-04-07T03:13:01.591Z,97366.11
2019-04-07T03:15:11.267Z,97362.52
2019-04-07T03:17:27.270Z,97364.63
2019-04-07T03:19:37.220Z,97369.48
2019-04-07T03:22:02.976Z,97365.41
2019-04-07T03:24:22.096Z,97358.36
2019-04-07T03:26:44.366Z,97358.89
2019-04-07T03:29:03.496Z,97357.78
2019-04-07T03:31:17.702Z,97360.13
2019-04-07T03:33:35.112Z,97356.57
2019-04-07T03:35:47.865Z,97356.81
2019-04-07T03:38:00.950Z,97355.96
2019-04-07T03:40:23.192Z,97354.05
2019-04-07T03:42:33.170Z,97349.69
2019-04-07T03:44:59.600Z,97344.20
2019-04-07T03:47:07.535Z,97351.67
2019-04-07T03:49:33.547Z,97353.75
2019-04-07T03:51:42.086Z,97356.15
2019-04-07T03:54:03.535Z,97358.48
2019-04-07T03:56:16.940Z,97350.84
2019-04-07T03:58:39.683Z,97354.64
2019-04-07T04:01:35.438Z,97349.45
2019-04-07T04:03:46.021Z,97355.41
2019-04-07T04:06:12.777Z,97364.40
2019-04-07T04:08:35.508Z,97359.57
2019-04-07T04:11:01.724Z,97355.48
2019-04-07T04:13:16.740Z,97357.63
2019-04-07T04:15:24.352Z,97364.14
2019-04-07T04:17:29.189Z,97362.76
2019-04-07T04:19:33.648Z,97361.11
2019-04-07T04:21:38.164Z,97364.32
2019-04-07T04:23:43.168Z,97368.05
2019-04-07T04:25:47.345Z,97371.32
2019-04-07T04:27:51.127Z,97370.73
2019-04-07T04:29:55.278Z,97367.97
2019-04-07T04:31:59.740Z,97363.33
2019-04-07T04:34:03.487Z,97364.38
2019-04-07T04:36:08.090Z,97366.23
2019-04-07T04:38:12.204Z,97371.67
2019-04-07T04:40:16.174Z,97369.50
2019-04-07T04:42:20.445Z,97368.44
2019-04-07T04:44:24.258Z,97372.77
2019-04-07T04:46:27.952Z,97364.12
2019-04-07T04:48:32.217Z,97368.67
2019-04-07T04:50:35.951Z,97368.09
2019-04-07T04:52:40.789Z,97377.23
2019-04-07T04:54:44.671Z,97374.49
2019-04-07T04:56:48.388Z,97374.79
2019-04-07T04:58:53.162Z,97383.96
2019-04-07T05:00:57.754Z,97391.28
2019-04-07T05:03:01.581Z,97389.66
2019-04-07T05:05:08.995Z,97391.58
2019-04-07T05:07:12.414Z,97395.14
2019-04-07T05:09:16.220Z,97389.47
2019-04-07T05:11:20.009Z,97388.70
2019-04-07T05:13:23.717Z,97396.55
2019-04-07T05:15:27.570Z,97397.41
2019-04-07T05:17:31.334Z,97399.62
2019-04-07T05:19:35.587Z,97393.70
2019-04-07T05:21:39.450Z,97397.59
2019-04-07T05:23:43.846Z,97399.03
2019-04-07T05:25:48.117Z,97403.70
2019-04-07T05:27:51.973Z,97404.32
2019-04-07T05:29:55.732Z,97408.44
2019-04-07T05:31:59.453Z,97411.47
2019-04-07T05:34:03.234Z,97409.61
2019-04-07T05:36:06.982Z,97409.36
2019-04-07T05:38:11.324Z,97414.01
2019-04-07T05:40:15.524Z,97414.65
2019-04-07T05:42:19.996Z,97418.49
2019-04-07T05:44:24.458Z,97419.60
2019-04-07T05:46:28.402Z,97422.36
2019-04-07T05:48:32.660Z,97423.50
2019-04-07T05:50:36.282Z,97423.55
2019-04-07T05:52:40.826Z,97422.80
2019-04-07T05:54:45.097Z,97428.01
2019-04-07T05:56:49.238Z,97422.66
2019-04-07T05:58:52.973Z,97428.13
2019-04-07T06:00:57.018Z,97434.99
2019-04-07T06:03:04.541Z,97432.09
2019-04-07T06:05:06.698Z,97431.64
2019-04-07T06:07:10.393Z,97427.63
2019-04-07T06:09:15.871Z,97427.95
2019-04-07T06:11:19.554Z,97431.30
2019-04-07T06:13:23.706Z,97434.34
2019-04-07T06:15:27.433Z,97431.46
2019-04-07T06:17:31.473Z,97435.02
2019-04-07T06:19:40.581Z,97428.86
2019-04-07T06:21:41.551Z,97441.91
2019-04-07T06:23:45.402Z,97439.23
2019-04-07T06:25:49.089Z,97438.73
2019-04-07T06:27:53.251Z,97438.23
2019-04-07T06:29:59.904Z,97437.17
2019-04-07T06:32:05.133Z,97432.00
2019-04-07T06:34:10.278Z,97430.11
2019-04-07T06:36:15.400Z,97435.82
2019-04-07T06:38:30.305Z,97433.61
2019-04-07T06:40:24.474Z,97431.43
2019-04-07T06:42:31.563Z,97428.12
2019-04-07T06:44:33.610Z,97430.81
2019-04-07T06:46:46.956Z,97430.75
2019-04-07T06:49:18.863Z,97438.02
2019-04-07T06:51:34.750Z,97429.76
2019-04-07T06:53:55.751Z,97430.51
2019-04-07T06:56:09.886Z,97434.75
2019-04-07T06:58:19.747Z,97428.80
2019-04-07T07:00:34.291Z,97431.58
2019-04-07T07:02:48.839Z,97429.66
2019-04-07T07:05:14.647Z,97431.06
2019-04-07T07:07:30.327Z,97435.17
2019-04-07T07:09:54.817Z,97432.91
2019-04-07T07:12:19.255Z,97424.00
2019-04-07T07:14:40.456Z,97417.82
2019-04-07T07:16:54.471Z,97423.11
2019-04-07T07:19:17.265Z,97415.33
2019-04-07T07:21:38.674Z,97411.56
2019-04-07T07:23:44.861Z,97406.05
2019-04-07T07:25:47.578Z,97415.66
2019-04-07T07:27:51.300Z,97413.88
2019-04-07T07:29:55.499Z,97414.86
2019-04-07T07:32:03.481Z,97403.78
2019-04-07T07:34:05.042Z,97404.97
2019-04-07T07:36:09.185Z,97410.26
2019-04-07T07:38:12.882Z,97401.55
2019-04-07T07:40:18.340Z,97410.06
2019-04-07T07:42:24.123Z,97401.66
2019-04-07T07:44:27.827Z,97409.97
2019-04-07T07:46:32.256Z,97398.91
2019-04-07T07:48:36.854Z,97406.42
2019-04-07T07:50:40.789Z,97412.20
2019-04-07T07:52:45.276Z,97407.36
2019-04-07T07:54:50.752Z,97405.01
2019-04-07T07:56:54.788Z,97409.45
2019-04-07T07:59:00.874Z,97412.41
2019-04-07T08:01:04.344Z,97414.44
2019-04-07T08:03:08.567Z,97420.14
2019-04-07T08:05:12.729Z,97424.43
2019-04-07T08:07:16.706Z,97415.30
2019-04-07T08:09:23.690Z,97427.04
2019-04-07T08:11:30.765Z,97429.46
2019-04-07T08:13:32.494Z,97415.66
2019-04-07T08:15:36.282Z,97420.69
2019-04-07T08:17:40.019Z,97420.36
2019-04-07T08:19:44.505Z,97428.34
2019-04-07T08:21:50.696Z,97428.75
2019-04-07T08:23:54.645Z,97431.36
2019-04-07T08:25:59.112Z,97441.39
2019-04-07T08:28:04.613Z,97430.63
2019-04-07T08:30:11.816Z,97439.09
2019-04-07T08:32:14.182Z,97434.84
2019-04-07T08:34:17.908Z,97428.98
2019-04-07T08:36:21.655Z,97426.02
2019-04-07T08:38:27.156Z,97431.13
2019-04-07T08:40:30.978Z,97429.25
2019-04-07T08:42:35.848Z,97431.48
2019-04-07T08:44:39.546Z,97428.70
2019-04-07T08:46:44.422Z,97431.33
2019-04-07T08:48:51.770Z,97426.94
2019-04-07T08:50:57.258Z,97423.31
2019-04-07T08:52:59.149Z,97423.05
2019-04-07T08:55:03.100Z,97428.84
2019-04-07T08:57:07.141Z,97429.72
2019-04-07T08:59:14.428Z,97432.06
2019-04-07T09:01:20.310Z,97431.23
2019-04-07T09:03:22.038Z,97433.86
2019-04-07T09:05:28.834Z,97431.64
2019-04-07T09:07:33.421Z,97446.88
2019-04-07T09:09:40.386Z,97429.52
2019-04-07T09:11:42.531Z,97425.53
2019-04-07T09:13:51.146Z,97419.27
2019-04-07T09:16:25.939Z,97421.53
2019-04-07T09:18:37.594Z,97418.77
2019-04-07T09:20:49.460Z,97413.10
2019-04-07T09:22:59.397Z,97418.50
2019-04-07T09:25:22.618Z,97416.06
2019-04-07T09:27:46.075Z,97420.72
2019-04-07T09:30:16.389Z,97417.84
2019-04-07T09:32:44.920Z,97418.98
2019-04-07T09:35:07.543Z,97412.78
2019-04-07T09:37:42.447Z,97422.76
2019-04-07T09:40:08.160Z,97432.51
2019-04-07T09:42:30.902Z,97415.66
2019-04-07T09:44:45.328Z,97416.40
2019-04-07T09:47:04.311Z,97420.85
2019-04-07T09:49:32.980Z,97420.36
2019-04-07T09:51:42.872Z,97421.06
2019-04-07T09:53:55.451Z,97413.47
2019-04-07T09:56:11.885Z,97414.80
2019-04-07T09:58:35.021Z,97412.36
2019-04-07T10:00:50.716Z,97412.78
2019-04-07T10:03:18.126Z,97415.44
2019-04-07T10:05:41.145Z,97419.28
2019-04-07T10:08:20.078Z,97409.48
2019-04-07T10:10:49.441Z,97411.52
2019-04-07T10:13:06.677Z,97412.22
2019-04-07T10:15:27.252Z,97409.37
2019-04-07T10:17:40.488Z,97404.19
2019-04-07T10:20:02.301Z,97408.00
2019-04-07T10:22:22.192Z,97405.53
2019-04-07T10:24:47.168Z,97425.61
2019-04-07T10:26:59.083Z,97411.71
2019-04-07T10:29:09.773Z,97423.69
2019-04-07T10:31:31.648Z,97405.88
2019-04-07T10:34:00.609Z,97401.44
2019-04-07T10:36:27.053Z,97408.40
2019-04-07T10:38:50.839Z,97411.38
2019-04-07T10:41:02.912Z,97406.62
2019-04-07T10:43:26.177Z,97403.10
2019-04-07T10:46:07.896Z,97403.26
2019-04-07T10:48:19.215Z,97394.58
2019-04-07T10:51:00.235Z,97399.09
2019-04-07T10:53:30.932Z,97405.50
2019-04-07T10:55:59.946Z,97409.80
2019-04-07T10:58:20.870Z,97399.48
2019-04-07T11:00:45.481Z,97400.50
2019-04-07T11:03:00.915Z,97396.08
2019-04-07T11:05:26.163Z,97392.38
2019-04-07T11:07:48.260Z,97395.46
2019-04-07T11:10:09.745Z,97387.72
2019-04-07T11:12:44.633Z,97381.50
2019-04-07T11:15:10.330Z,97382.62
2019-04-07T11:17:31.631Z,97385.42
2019-04-07T11:19:51.352Z,97382.56
2019-04-07T11:22:14.406Z,97385.06
2019-04-07T11:24:40.009Z,97384.66
2019-04-07T11:27:08.132Z,97383.72
2019-04-07T11:29:17.942Z,97387.02
2019-04-07T11:31:38.523Z,97377.34
2019-04-07T11:34:01.465Z,97395.31
2019-04-07T11:36:21.615Z,97376.70
2019-04-07T11:38:43.938Z,97382.87
2019-04-07T11:41:05.834Z,97381.98
2019-04-07T11:43:19.534Z,97389.30
2019-04-07T11:45:34.445Z,97373.78
2019-04-07T11:47:58.066Z,97370.17
2019-04-07T11:50:08.018Z,97358.53
2019-04-07T11:52:16.472Z,97360.06
2019-04-07T11:54:42.616Z,97359.94
2019-04-07T11:56:55.617Z,97358.66
2019-04-07T11:59:33.690Z,97376.19
2019-04-07T12:01:53.179Z,97361.71
2019-04-07T12:04:34.568Z,97353.02
2019-04-07T12:06:49.974Z,97362.89
2019-04-07T12:09:00.507Z,97355.66
2019-04-07T12:11:32.778Z,97354.95
2019-04-07T12:14:05.184Z,97355.66
2019-04-07T12:16:30.909Z,97364.93
2019-04-07T12:18:56.858Z,97357.52
2019-04-07T12:21:25.268Z,97367.20
2019-04-07T12:23:38.210Z,97353.86
2019-04-07T12:26:07.430Z,97360.27
2019-04-07T12:28:28.855Z,97380.20
2019-04-07T12:30:52.842Z,97362.79
2019-04-07T12:33:07.865Z,97366.55
2019-04-07T12:35:50.932Z,97355.75
2019-04-07T12:38:12.181Z,97359.80
2019-04-07T12:40:34.267Z,97359.94
2019-04-07T12:42:58.038Z,97359.45
2019-04-07T12:45:16.924Z,97356.85
2019-04-07T12:47:39.858Z,97357.44
2019-04-07T12:49:53.375Z,97366.77
2019-04-07T12:52:09.805Z,97353.17
2019-04-07T12:54:35.344Z,97351.97
2019-04-07T12:57:07.383Z,97368.19
2019-04-07T12:59:39.626Z,97360.73
2019-04-07T13:02:06.013Z,97353.47
2019-04-07T13:04:29.912Z,97354.69
2019-04-07T13:06:51.361Z,97363.39
2019-04-07T13:09:00.767Z,97359.61
2019-04-07T13:11:34.570Z,97361.30
2019-04-07T13:13:52.790Z,97360.36
2019-04-07T13:16:14.574Z,97361.73
2019-04-07T13:18:39.128Z,97349.91
2019-04-07T13:21:01.125Z,97352.52
2019-04-07T13:23:11.251Z,97350.46
2019-04-07T13:25:34.306Z,97355.18
2019-04-07T13:27:48.275Z,97358.38
2019-04-07T13:30:14.126Z,97347.89
2019-04-07T13:32:23.859Z,97347.45
2019-04-07T13:34:50.388Z,97351.47
2019-04-07T13:37:05.864Z,97353.08
2019-04-07T13:39:15.315Z,97345.39
2019-04-07T13:41:37.313Z,97353.08
2019-04-07T13:43:47.452Z,97359.03
2019-04-07T13:46:22.052Z,97364.37
2019-04-07T13:48:37.936Z,97357.37
2019-04-07T13:50:59.604Z,97360.30
2019-04-07T13:53:16.569Z,97362.22
2019-04-07T13:55:42.606Z,97360.59
2019-04-07T13:58:19.673Z,97353.12
2019-04-07T14:00:42.943Z,97371.50
2019-04-07T14:03:09.249Z,97357.16
2019-04-07T14:05:46.303Z,97368.42
2019-04-07T14:08:16.892Z,97356.64
2019-04-07T14:10:43.854Z,97357.56
2019-04-07T14:12:55.670Z,97358.30
2019-04-07T14:15:10.356Z,97364.27
2019-04-07T14:17:31.851Z,97361.25
2019-04-07T14:19:46.326Z,97365.13
2019-04-07T14:21:57.556Z,97370.59
2019-04-07T14:24:11.534Z,97372.27
2019-04-07T14:26:22.245Z,97374.42
2019-04-07T14:28:45.840Z,97372.44
2019-04-07T14:31:15.243Z,97378.50
2019-04-07T14:33:46.995Z,97382.47
2019-04-07T14:36:18.610Z,97381.42
2019-04-07T14:38:45.548Z,97379.66
2019-04-07T14:41:11.717Z,97381.97
2019-04-07T14:43:24.680Z,97383.70
2019-04-07T14:45:59.644Z,97383.66
2019-04-07T14:48:13.318Z,97383.56
2019-04-07T14:50:45.404Z,97391.98
2019-04-07T14:53:02.019Z,97389.38
2019-04-07T14:55:23.793Z,97389.64
2019-04-07T14:57:45.976Z,97388.51
2019-04-07T14:59:57.848Z,97381.89
2019-04-07T15:02:02.144Z,97381.91
2019-04-07T15:04:06.430Z,97388.77
2019-04-07T15:06:10.902Z,97388.95
2019-04-07T15:08:26.396Z,97388.95
2019-04-07T15:10:37.424Z,97394.04
2019-04-07T15:12:45.674Z,97388.28
2019-04-07T15:14:50.414Z,97409.32
2019-04-07T15:16:54.663Z,97410.00
2019-04-07T15:18:59.495Z,97412.17
2019-04-07T15:21:03.524Z,97401.45
2019-04-07T15:23:07.360Z,97408.35
2019-04-07T15:25:11.935Z,97410.44
2019-04-07T15:27:16.761Z,97394.52
2019-04-07T15:29:22.053Z,97407.00
2019-04-07T15:31:26.414Z,97399.73
2019-04-07T15:33:33.053Z,97392.56
2019-04-07T15:35:35.677Z,97404.93
2019-04-07T15:37:40.653Z,97403.31
2019-04-07T15:39:44.744Z,97398.47
2019-04-07T15:41:49.457Z,97401.58
2019-04-07T15:43:54.963Z,97413.00
2019-04-07T15:45:58.763Z,97403.09
2019-04-07T15:48:02.935Z,97415.54
2019-04-07T15:50:07.304Z,97413.69
2019-04-07T15:52:11.348Z,97419.13
2019-04-07T15:54:19.848Z,97426.02
2019-04-07T15:56:20.892Z,97424.71
2019-04-07T15:58:26.757Z,97424.69
2019-04-07T16:00:35.161Z,97429.49
2019-04-07T16:02:41.099Z,97426.27
2019-04-07T16:04:44.034Z,97427.22
2019-04-07T16:06:50.230Z,97439.42
2019-04-07T16:08:53.268Z,97432.75
2019-04-07T16:10:57.092Z,97434.38
2019-04-07T16:13:01.453Z,97429.42
2019-04-07T16:15:06.205Z,97440.14
2019-04-07T16:17:11.250Z,97443.86
2019-04-07T16:19:19.759Z,97445.11
2019-04-07T16:21:21.020Z,97452.70
2019-04-07T16:23:24.769Z,97447.98
2019-04-07T16:25:29.142Z,97451.56
2019-04-07T16:27:37.617Z,97455.00
2019-04-07T16:29:38.717Z,97454.30
2019-04-07T16:31:42.454Z,97455.41
2019-04-07T16:33:46.555Z,97464.08
2019-04-07T16:35:54.880Z,97466.06
2019-04-07T16:37:58.367Z,97474.50
2019-04-07T16:40:06.311Z,97471.05
2019-04-07T16:42:06.913Z,97468.51
2019-04-07T16:44:11.768Z,97473.09
2019-04-07T16:46:20.437Z,97479.86
2019-04-07T16:48:21.025Z,97476.72
2019-04-07T16:50:25.030Z,97473.52
2019-04-07T16:52:32.928Z,97475.69
2019-04-07T16:54:34.318Z,97479.17
2019-04-07T16:56:38.146Z,97475.69
2019-04-07T16:58:41.950Z,97474.88
2019-04-07T17:00:45.695Z,97478.20
2019-04-07T17:02:49.419Z,97477.67
2019-04-07T17:04:53.868Z,97475.88
2019-04-07T17:07:03.311Z,97482.84
2019-04-07T17:09:06.612Z,97481.24
2019-04-07T17:11:10.832Z,97481.34
2019-04-07T17:13:20.483Z,97480.27
2019-04-07T17:15:21.127Z,97487.77
2019-04-07T17:17:25.959Z,97484.75
2019-04-07T17:19:30.135Z,97491.41
2019-04-07T17:21:34.020Z,97494.41
2019-04-07T17:23:38.784Z,97489.45
2019-04-07T17:25:43.972Z,97491.31
2019-04-07T17:27:47.860Z,97494.67
2019-04-07T17:29:54.134Z,97494.16
2019-04-07T17:32:01.228Z,97495.16
2019-04-07T17:34:04.956Z,97503.22
2019-04-07T17:36:08.992Z,97501.75
2019-04-07T17:38:13.791Z,97500.12
2019-04-07T17:40:19.523Z,97504.44
2019-04-07T17:42:26.272Z,97499.27
2019-04-07T17:44:42.049Z,97502.38
2019-04-07T17:47:13.871Z,97503.34
2019-04-07T17:49:33.488Z,97511.40
2019-04-07T17:51:43.869Z,97510.69
2019-04-07T17:54:19.478Z,97515.89
2019-04-07T17:56:46.077Z,97516.61
2019-04-07T17:59:11.243Z,97515.87
2019-04-07T18:01:38.958Z,97520.27
2019-04-07T18:04:00.628Z,97525.28
2019-04-07T18:06:26.141Z,97527.56
2019-04-07T18:08:47.356Z,97528.22
2019-04-07T18:11:07.577Z,97538.75
2019-04-07T18:13:21.967Z,97536.70
2019-04-07T18:15:49.872Z,97538.09
2019-04-07T18:18:12.173Z,97530.20
2019-04-07T18:20:39.565Z,97539.36
2019-04-07T18:22:53.920Z,97541.97
2019-04-07T18:25:14.963Z,97543.98
2019-04-07T18:27:43.770Z,97543.88
2019-04-07T18:29:55.072Z,97546.70
2019-04-07T18:32:16.629Z,97550.88
2019-04-07T18:34:43.013Z,97552.03
2019-04-07T18:36:55.310Z,97558.59
2019-04-07T18:39:11.242Z,97555.83
2019-04-07T18:41:35.972Z,97557.55
2019-04-07T18:44:06.426Z,97564.73
2019-04-07T18:46:16.558Z,97578.09
2019-04-07T18:48:40.241Z,97576.53
2019-04-07T18:50:58.852Z,97581.33
2019-04-07T18:53:27.591Z,97583.27
2019-04-07T18:55:52.535Z,97580.02
2019-04-07T18:58:03.148Z,97589.08
2019-04-07T19:00:18.943Z,97595.45
2019-04-07T19:02:44.210Z,97595.01
2019-04-07T19:05:04.980Z,97599.40
2019-04-07T19:07:39.984Z,97596.98
2019-04-07T19:10:17.616Z,97603.11
2019-04-07T19:12:24.783Z,97603.31
2019-04-07T19:15:00.738Z,97599.81
2019-04-07T19:17:16.628Z,97613.38
2019-04-07T19:19:37.186Z,97605.84
2019-04-07T19:22:04.311Z,97610.83
2019-04-07T19:24:33.140Z,97608.97
2019-04-07T19:27:11.883Z,97612.53
2019-04-07T19:29:28.327Z,97613.59
2019-04-07T19:31:57.832Z,97611.09
2019-04-07T19:34:19.037Z,97615.72
2019-04-07T19:36:42.762Z,97620.27
2019-04-07T19:39:23.783Z,97615.58
2019-04-07T19:41:46.939Z,97619.48
2019-04-07T19:44:06.032Z,97615.58
2019-04-07T19:46:29.435Z,97620.20
2019-04-07T19:48:49.117Z,97614.70
2019-04-07T19:51:11.853Z,97614.70
2019-04-07T19:53:43.241Z,97619.09
2019-04-07T19:56:04.950Z,97624.10
2019-04-07T19:58:19.982Z,97611.59
2019-04-07T20:00:34.116Z,97611.23
2019-04-07T20:03:04.269Z,97609.72
2019-04-07T20:05:25.440Z,97606.80
2019-04-07T20:07:49.202Z,97603.79
2019-04-07T20:10:19.900Z,97599.98
2019-04-07T20:12:41.414Z,97593.47
2019-04-07T20:15:12.042Z,97595.53
2019-04-07T20:17:39.273Z,97603.42
2019-04-07T20:19:55.580Z,97599.69
2019-04-07T20:22:18.383Z,97595.42
2019-04-07T20:24:40.133Z,97594.14
2019-04-07T20:27:03.085Z,97590.20
2019-04-07T20:29:45.008Z,97598.02
2019-04-07T20:32:01.272Z,97595.33
2019-04-07T20:34:27.020Z,97590.50
2019-04-07T20:37:01.823Z,97593.31
2019-04-07T20:39:11.718Z,97589.25
2019-04-07T20:41:21.781Z,97595.89
2019-04-07T20:43:31.810Z,97600.30
2019-04-07T20:45:54.522Z,97598.17
2019-04-07T20:48:23.312Z,97595.54
2019-04-07T20:50:46.983Z,97589.38
2019-04-07T20:53:15.446Z,97590.92
2019-04-07T20:55:39.554Z,97595.77
2019-04-07T20:58:11.605Z,97598.20
2019-04-07T21:00:22.902Z,97597.14
2019-04-07T21:02:44.345Z,97597.31
2019-04-07T21:05:05.648Z,97602.58
2019-04-07T21:07:16.839Z,97601.66
2019-04-07T21:09:57.759Z,97604.52
2019-04-07T21:12:28.919Z,97604.88
2019-04-07T21:14:52.354Z,97605.80
2019-04-07T21:17:11.624Z,97604.02
2019-04-07T21:19:25.611Z,97610.11
2019-04-07T21:21:43.897Z,97616.19
2019-04-07T21:24:04.674Z,97611.80
2019-04-07T21:26:19.069Z,97614.60
2019-04-07T21:28:35.204Z,97616.82
2019-04-07T21:30:44.089Z,97617.78
2019-04-07T21:32:55.647Z,97621.34
2019-04-07T21:35:11.862Z,97623.31
2019-04-07T21:37:23.853Z,97628.80
2019-04-07T21:39:34.461Z,97628.30
2019-04-07T21:41:49.938Z,97633.02
2019-04-07T21:44:07.103Z,97630.82
2019-04-07T21:46:28.383Z,97628.17
2019-04-07T21:48:45.395Z,97635.63
2019-04-07T21:51:16.471Z,97632.09
2019-04-07T21:53:31.947Z,97637.22
2019-04-07T21:55:55.145Z,97630.36
2019-04-07T21:58:10.354Z,97629.63
2019-04-07T22:00:37.050Z,97626.73
2019-04-07T22:02:51.598Z,97632.42
2019-04-07T22:05:19.871Z,97632.69
2019-04-07T22:07:51.936Z,97633.51
2019-04-07T22:09:59.135Z,97632.64
2019-04-07T22:12:02.922Z,97623.23
2019-04-07T22:14:07.692Z,97624.88
2019-04-07T22:16:11.499Z,97618.61
2019-04-07T22:18:15.734Z,97616.18
2019-04-07T22:20:20.608Z,97616.18
2019-04-07T22:22:26.590Z,97606.63
2019-04-07T22:24:33.983Z,97607.48
2019-04-07T22:26:37.013Z,97615.09
2019-04-07T22:28:41.535Z,97608.55
2019-04-07T22:30:45.283Z,97610.19
2019-04-07T22:32:50.957Z,97607.73
2019-04-07T22:34:54.517Z,97612.70
2019-04-07T22:36:59.008Z,97612.20
2019-04-07T22:39:02.705Z,97612.25
2019-04-07T22:41:08.930Z,97611.98
2019-04-07T22:43:16.687Z,97617.78
2019-04-07T22:45:19.108Z,97613.80
2019-04-07T22:47:23.625Z,97605.61
2019-04-07T22:49:31.459Z,97610.87
2019-04-07T22:51:32.928Z,97612.83
2019-04-07T22:53:37.064Z,97607.93
2019-04-07T22:55:40.877Z,97617.85
2019-04-07T22:57:44.593Z,97624.20
2019-04-07T22:59:48.348Z,97625.97
2019-04-07T23:01:52.079Z,97619.94
2019-04-07T23:03:56.098Z,97617.81
2019-04-07T23:05:59.847Z,97621.11
2019-04-07T23:08:04.055Z,97620.29
2019-04-07T23:10:07.959Z,97627.70
2019-04-07T23:12:12.641Z,97629.06
2019-04-07T23:14:16.348Z,97626.16
2019-04-07T23:16:20.407Z,97628.33
2019-04-07T23:18:24.316Z,97632.70
2019-04-07T23:20:29.063Z,97639.56
2019-04-07T23:22:32.848Z,97644.03
2019-04-07T23:24:36.937Z,97646.50
2019-04-07T23:26:40.642Z,97648.97
2019-04-07T23:28:44.362Z,97651.98
2019-04-07T23:30:48.138Z,97657.77
2019-04-07T23:32:51.844Z,97658.91
2019-04-07T23:34:55.561Z,97655.97
2019-04-07T23:36:59.741Z,97660.87
2019-04-07T23:39:05.690Z,97655.00
2019-04-07T23:41:09.672Z,97659.10
2019-04-07T23:43:13.323Z,97659.34
2019-04-07T23:45:17.181Z,97654.72
2019-04-07T23:47:21.598Z,97660.72
2019-04-07T23:49:26.060Z,97658.83
2019-04-07T23:51:29.753Z,97655.78
2019-04-07T23:54:11.009Z,97649.80
2019-04-07T23:56:15.644Z,97653.12
2019-04-07T23:58:19.410Z,97641.37
